Minerva Grace — SVBN7 — position and weather

sailwx.info

Track history (hours):
 
Tides and Currents Weather Stations Pressure Air Temp Water Temp Dewpoint Dewpoint Depression Visibility Wind Speed Wind Dir Waves Ship Positions

Minerva Grace

Last reported at 2017-Mar-29 11:29 UTC. Time now 2017-Mar-29 13:32 UTC.
Position N 57°30' E 010°41'.

Length 183 m; draft 10.1 m.

Type: Ship (hazmat cat A). MMSI: 215925000.

Date/timePositionNaut miles runAvg speedWind from/ knotsBaromVisibWave heightAir tempDewpointWater temp
2017-Mar-29 11:29N 57°30' E 010°41'0 0.0
2017-Mar-29 10:26N 57°30' E 010°41'0 0.0
2017-Mar-29 09:29N 57°30' E 010°41'0 0.0
2017-Mar-29 08:26N 57°30' E 010°41'0 0.0
2017-Mar-29 06:23N 57°30' E 010°41'0 0.0
2017-Mar-29 05:33N 57°30' E 010°41'1 1.1
2017-Mar-29 04:33N 57°31' E 010°41'0 0.1
2017-Mar-29 03:32N 57°31' E 010°41'0 0.0
2017-Mar-29 02:32N 57°31' E 010°41'0 0.0
2017-Mar-29 01:32N 57°31' E 010°41'0 0.0
2017-Mar-29 00:32N 57°31' E 010°41'0 0.0
2017-Mar-28 23:32N 57°31' E 010°41'0 0.0
2017-Mar-28 22:26N 57°31' E 010°41'0 0.0
2017-Mar-28 21:29N 57°31' E 010°41'0 0.2
2017-Mar-28 20:33N 57°31' E 010°41'8 7.7
2017-Mar-28 19:33N 57°31' E 010°55'1212.2
2017-Mar-28 18:33N 57°31' E 011°18'1211.8
2017-Mar-28 17:33N 57°21' E 011°30'1312.6
2017-Mar-28 16:33N 57°10' E 011°39'1212.3
2017-Mar-28 15:33N 56°58' E 011°45'1212.0
2017-Mar-28 14:33N 56°46' E 011°52'1312.5
2017-Mar-28 13:30N 56°34' E 011°42'1212.5
2017-Mar-28 12:34N 56°24' E 011°31'1312.6
2017-Mar-28 11:33N 56°13' E 011°20'1312.6
2017-Mar-28 10:31N 56°02' E 011°06'1211.5
2017-Mar-28 09:30N 55°54' E 010°52'1010.0
2017-Mar-28 08:28N 55°44' E 010°48'1111.9
2017-Mar-28 07:31N 55°33' E 010°51'1212.4
2017-Mar-28 06:33N 55°23' E 011°02'1110.9
2017-Mar-28 05:33N 55°12' E 011°05'1111.2
2017-Mar-28 04:34N 55°01' E 010°59'1111.2
2017-Mar-28 03:34N 54°51' E 010°50'1111.3
2017-Mar-28 02:33N 54°40' E 010°48'1211.9
2017-Mar-28 01:34N 54°36' E 011°07'1212.2
2017-Mar-28 00:33N 54°31' E 011°27'1212.3
2017-Mar-27 23:33N 54°26' E 011°46'1212.0
2017-Mar-27 22:34N 54°26' E 012°07'1010.4
2017-Mar-27 21:33N 54°35' E 012°15'8 8.0
2017-Mar-27 20:33N 54°40' E 012°27'1010.3
2017-Mar-27 19:34N 54°45' E 012°42'1110.5
2017-Mar-27 18:31N 54°50' E 012°59'1212.1
2017-Mar-27 17:33N 54°54' E 013°18'1212.1
2017-Mar-27 16:34N 54°58' E 013°37'1212.2
2017-Mar-27 15:34N 55°02' E 013°58'1211.9
2017-Mar-27 14:33N 55°10' E 014°13'1212.3
2017-Mar-27 13:34N 55°20' E 014°27'1211.8
2017-Mar-27 12:34N 55°28' E 014°41'1211.7
2017-Mar-27 11:34N 55°33' E 015°00'1212.4
2017-Mar-27 10:34N 55°38' E 015°20'1312.7
2017-Mar-27 09:33N 55°41' E 015°42'1312.6
2017-Mar-27 08:33N 55°44' E 016°04'1313.1
2017-Mar-27 07:33N 55°48' E 016°26'1313.5
2017-Mar-27 06:33N 55°51' E 016°49'27812.1
2017-Mar-26 07:33N 59°26' E 022°18'1212.0
2017-Mar-26 06:33N 59°32' E 022°39'1512.4
2017-Mar-26 05:21N 59°36' E 023°07'1012.6
2017-Mar-26 04:33N 59°39' E 023°26'1312.7
2017-Mar-26 03:33N 59°42' E 023°50'7712.8
2017-Mar-25 21:33N 59°59' E 026°19'1312.7
2017-Mar-25 20:33N 60°00' E 026°45'1312.2
2017-Mar-25 19:31N 60°01' E 027°10'1212.7
2017-Mar-25 18:33N 60°08' E 027°31'1211.8
2017-Mar-25 17:33N 60°11' E 027°54'1212.3
2017-Mar-25 16:33N 60°08' E 028°17'1211.8
2017-Mar-25 15:33N 60°00' E 028°36'9 9.2
2017-Mar-25 14:33N 59°52' E 028°28'6 5.4
2017-Mar-25 13:29N 59°46' E 028°25'0 0.1
2017-Mar-25 12:29N 59°46' E 028°25'0 0.0
2017-Mar-25 11:32N 59°46' E 028°25'0 0.0
2017-Mar-25 10:32N 59°46' E 028°25'0 0.0
2017-Mar-25 09:32N 59°46' E 028°25'0 0.0
2017-Mar-25 08:32N 59°46' E 028°25'0 0.0
2017-Mar-25 07:32N 59°46' E 028°25'0 0.0
2017-Mar-25 06:32N 59°46' E 028°25'0 0.0
2017-Mar-25 05:32N 59°46' E 028°25'0 0.0
2017-Mar-25 04:23N 59°46' E 028°25'0 0.0
2017-Mar-25 03:23N 59°46' E 028°25'0 0.0
2017-Mar-25 02:26N 59°46' E 028°25'0 0.0
2017-Mar-25 01:26N 59°46' E 028°25'0 0.0
2017-Mar-25 00:26N 59°46' E 028°25'0 0.1
2017-Mar-24 23:29N 59°46' E 028°25'0 0.1
2017-Mar-24 22:29N 59°46' E 028°25'0 0.0
2017-Mar-24 21:32N 59°46' E 028°25'0 0.0
2017-Mar-24 20:32N 59°46' E 028°25'0 0.0
2017-Mar-24 19:32N 59°46' E 028°25'0 0.0
2017-Mar-24 18:32N 59°46' E 028°25'0 0.2
2017-Mar-24 17:33N 59°46' E 028°25'4 4.0
2017-Mar-24 16:34N 59°42' E 028°25'0 0.4
2017-Mar-24 15:31N 59°42' E 028°26'0 0.0
2017-Mar-24 14:31N 59°42' E 028°26'0 0.0
2017-Mar-24 13:31N 59°42' E 028°26'0 0.0
2017-Mar-24 12:31N 59°42' E 028°26'0 0.0
2017-Mar-24 11:31N 59°42' E 028°26'0 0.0
2017-Mar-24 10:22N 59°42' E 028°26'0 0.0
2017-Mar-24 09:31N 59°42' E 028°26'0 0.0
2017-Mar-24 08:22N 59°42' E 028°26'0 0.0
2017-Mar-24 07:25N 59°42' E 028°26'0 0.0
2017-Mar-24 06:25N 59°42' E 028°26'0 0.0
2017-Mar-24 05:25N 59°42' E 028°26'0 0.0
2017-Mar-24 04:28N 59°42' E 028°26'0 0.0
2017-Mar-24 03:28N 59°42' E 028°26'0 0.0
2017-Mar-24 02:28N 59°42' E 028°26'0 0.0
2017-Mar-24 01:31N 59°42' E 028°26'0 0.0
2017-Mar-24 00:31N 59°42' E 028°26'0 0.0
2017-Mar-23 23:31N 59°42' E 028°26'0 0.0
2017-Mar-23 22:31N 59°42' E 028°26'0 0.0
2017-Mar-23 21:31N 59°42' E 028°26'0 0.0
2017-Mar-23 20:31N 59°42' E 028°26'0 0.0
2017-Mar-23 19:22N 59°42' E 028°26'0 0.0
2017-Mar-23 18:22N 59°42' E 028°26'0 0.0
2017-Mar-23 17:25N 59°42' E 028°26'0 0.0
2017-Mar-23 16:25N 59°42' E 028°26'0 0.0
2017-Mar-23 15:22N 59°42' E 028°26'0 0.0
2017-Mar-23 14:28N 59°42' E 028°26'0 0.0
2017-Mar-23 13:28N 59°42' E 028°26'0 0.0
2017-Mar-23 12:31N 59°42' E 028°26'0 0.0
2017-Mar-23 11:31N 59°42' E 028°26'0 0.0
2017-Mar-23 10:31N 59°42' E 028°26'0 0.0
2017-Mar-23 09:31N 59°42' E 028°26'1 0.7
2017-Mar-23 08:33N 59°41' E 028°25'5 5.2
2017-Mar-23 07:33N 59°47' E 028°24'0 0.0
2017-Mar-23 06:24N 59°47' E 028°24'0 0.0
2017-Mar-23 05:24N 59°47' E 028°24'0 0.0
2017-Mar-23 04:33N 59°47' E 028°24'0 0.0
2017-Mar-23 03:33N 59°47' E 028°24'0 0.0
2017-Mar-23 02:24N 59°47' E 028°24'0 0.0
2017-Mar-23 01:27N 59°47' E 028°24'0 0.0
2017-Mar-23 00:27N 59°47' E 028°24'0 0.0
2017-Mar-22 23:27N 59°47' E 028°24'0 0.0
2017-Mar-22 22:27N 59°47' E 028°24'0 0.0
2017-Mar-22 21:30N 59°47' E 028°24'0 0.0
2017-Mar-22 20:30N 59°47' E 028°24'0 0.0
2017-Mar-22 19:33N 59°47' E 028°24'0 0.0
2017-Mar-22 18:33N 59°47' E 028°24'0 0.0
2017-Mar-22 17:33N 59°47' E 028°24'0 0.0
2017-Mar-22 16:33N 59°47' E 028°24'0 0.0
2017-Mar-22 15:33N 59°47' E 028°24'0 0.4
2017-Mar-22 14:33N 59°47' E 028°25'9 9.2
2017-Mar-22 13:33N 59°55' E 028°34'2 1.9
2017-Mar-22 12:32N 59°56' E 028°38'0 0.0
2017-Mar-22 11:29N 59°56' E 028°38'0 0.0
2017-Mar-22 10:32N 59°56' E 028°38'0 0.0
2017-Mar-22 09:32N 59°56' E 028°38'0 0.0
2017-Mar-22 08:32N 59°56' E 028°38'0 0.0
2017-Mar-22 07:32N 59°56' E 028°38'0 0.0
2017-Mar-22 06:23N 59°56' E 028°38'0 0.0
2017-Mar-22 05:26N 59°56' E 028°38'0 0.0
2017-Mar-22 04:26N 59°56' E 028°38'0 0.0
2017-Mar-22 03:26N 59°56' E 028°38'0 0.0
2017-Mar-22 02:29N 59°56' E 028°37'0 0.0
2017-Mar-22 01:29N 59°56' E 028°37'0 0.0
2017-Mar-22 00:29N 59°56' E 028°37'0 0.0
2017-Mar-21 23:29N 59°56' E 028°38'0 0.0
2017-Mar-21 22:32N 59°56' E 028°38'0 0.0
2017-Mar-21 21:32N 59°56' E 028°38'0 0.0
2017-Mar-21 20:32N 59°56' E 028°38'0 0.0
2017-Mar-21 19:32N 59°56' E 028°38'0 0.0
2017-Mar-21 18:32N 59°56' E 028°38'0 0.0
2017-Mar-21 17:23N 59°56' E 028°38'0 0.1
2017-Mar-21 16:23N 59°56' E 028°37'0 0.0
2017-Mar-21 15:23N 59°56' E 028°37'0 0.0
2017-Mar-21 14:26N 59°56' E 028°37'0 0.0
2017-Mar-21 13:26N 59°56' E 028°37'0 0.0
2017-Mar-21 12:29N 59°56' E 028°37'0 0.0
2017-Mar-21 11:29N 59°56' E 028°37'0 0.0
2017-Mar-21 10:26N 59°56' E 028°37'0 0.0
2017-Mar-21 09:32N 59°56' E 028°37'0 0.0
2017-Mar-21 08:32N 59°56' E 028°37'0 0.4
2017-Mar-21 07:33N 59°56' E 028°37'5 4.7
2017-Mar-21 06:33N 60°01' E 028°36'8 8.3
2017-Mar-21 05:33N 60°05' E 028°22'1010.1
2017-Mar-21 04:33N 60°09' E 028°03'9 9.5
2017-Mar-21 03:33N 60°10' E 027°44'10 9.9
2017-Mar-21 02:33N 60°05' E 027°27'1110.0
2017-Mar-21 01:30N 59°60' E 027°09'9 9.1
2017-Mar-21 00:33N 59°59' E 026°52'10 9.7
2017-Mar-20 23:33N 59°59' E 026°33'1110.0
2017-Mar-20 22:27N 59°56' E 026°11'11010.0
2017-Mar-20 11:27N 59°26' E 022°41'  
Track history (hours):
 
Tides and Currents Weather Stations Pressure Air Temp Water Temp Dewpoint Dewpoint Depression Visibility Wind Speed Wind Dir Waves Ship Positions

Minerva Grace

Last reported at 2017-Mar-29 11:29 UTC. Time now 2017-Mar-29 13:32 UTC.
Position N 57°30' E 010°41'.

Length 183 m; draft 10.1 m.

Type: Ship (hazmat cat A). MMSI: 215925000.

Date/timePositionNaut miles runAvg speedWind from/ knotsBaromVisibWave heightAir tempDewpointWater temp
2017-Mar-29 11:29N 57°30' E 010°41'0 0.0
2017-Mar-29 10:26N 57°30' E 010°41'0 0.0
2017-Mar-29 09:29N 57°30' E 010°41'0 0.0
2017-Mar-29 08:26N 57°30' E 010°41'0 0.0
2017-Mar-29 06:23N 57°30' E 010°41'0 0.0
2017-Mar-29 05:33N 57°30' E 010°41'1 1.1
2017-Mar-29 04:33N 57°31' E 010°41'0 0.1
2017-Mar-29 03:32N 57°31' E 010°41'0 0.0
2017-Mar-29 02:32N 57°31' E 010°41'0 0.0
2017-Mar-29 01:32N 57°31' E 010°41'0 0.0
2017-Mar-29 00:32N 57°31' E 010°41'0 0.0
2017-Mar-28 23:32N 57°31' E 010°41'0 0.0
2017-Mar-28 22:26N 57°31' E 010°41'0 0.0
2017-Mar-28 21:29N 57°31' E 010°41'0 0.2
2017-Mar-28 20:33N 57°31' E 010°41'8 7.7
2017-Mar-28 19:33N 57°31' E 010°55'1212.2
2017-Mar-28 18:33N 57°31' E 011°18'1211.8
2017-Mar-28 17:33N 57°21' E 011°30'1312.6
2017-Mar-28 16:33N 57°10' E 011°39'1212.3
2017-Mar-28 15:33N 56°58' E 011°45'1212.0
2017-Mar-28 14:33N 56°46' E 011°52'1312.5
2017-Mar-28 13:30N 56°34' E 011°42'1212.5
2017-Mar-28 12:34N 56°24' E 011°31'1312.6
2017-Mar-28 11:33N 56°13' E 011°20'1312.6
2017-Mar-28 10:31N 56°02' E 011°06'1211.5
2017-Mar-28 09:30N 55°54' E 010°52'1010.0
2017-Mar-28 08:28N 55°44' E 010°48'1111.9
2017-Mar-28 07:31N 55°33' E 010°51'1212.4
2017-Mar-28 06:33N 55°23' E 011°02'1110.9
2017-Mar-28 05:33N 55°12' E 011°05'1111.2
2017-Mar-28 04:34N 55°01' E 010°59'1111.2
2017-Mar-28 03:34N 54°51' E 010°50'1111.3
2017-Mar-28 02:33N 54°40' E 010°48'1211.9
2017-Mar-28 01:34N 54°36' E 011°07'1212.2
2017-Mar-28 00:33N 54°31' E 011°27'1212.3
2017-Mar-27 23:33N 54°26' E 011°46'1212.0
2017-Mar-27 22:34N 54°26' E 012°07'1010.4
2017-Mar-27 21:33N 54°35' E 012°15'8 8.0
2017-Mar-27 20:33N 54°40' E 012°27'1010.3
2017-Mar-27 19:34N 54°45' E 012°42'1110.5
2017-Mar-27 18:31N 54°50' E 012°59'1212.1
2017-Mar-27 17:33N 54°54' E 013°18'1212.1
2017-Mar-27 16:34N 54°58' E 013°37'1212.2
2017-Mar-27 15:34N 55°02' E 013°58'1211.9
2017-Mar-27 14:33N 55°10' E 014°13'1212.3
2017-Mar-27 13:34N 55°20' E 014°27'1211.8
2017-Mar-27 12:34N 55°28' E 014°41'1211.7
2017-Mar-27 11:34N 55°33' E 015°00'1212.4
2017-Mar-27 10:34N 55°38' E 015°20'1312.7
2017-Mar-27 09:33N 55°41' E 015°42'1312.6
2017-Mar-27 08:33N 55°44' E 016°04'1313.1
2017-Mar-27 07:33N 55°48' E 016°26'1313.5
2017-Mar-27 06:33N 55°51' E 016°49'27812.1
2017-Mar-26 07:33N 59°26' E 022°18'1212.0
2017-Mar-26 06:33N 59°32' E 022°39'1512.4
2017-Mar-26 05:21N 59°36' E 023°07'1012.6
2017-Mar-26 04:33N 59°39' E 023°26'1312.7
2017-Mar-26 03:33N 59°42' E 023°50'7712.8
2017-Mar-25 21:33N 59°59' E 026°19'1312.7
2017-Mar-25 20:33N 60°00' E 026°45'1312.2
2017-Mar-25 19:31N 60°01' E 027°10'1212.7
2017-Mar-25 18:33N 60°08' E 027°31'1211.8
2017-Mar-25 17:33N 60°11' E 027°54'1212.3
2017-Mar-25 16:33N 60°08' E 028°17'1211.8
2017-Mar-25 15:33N 60°00' E 028°36'9 9.2
2017-Mar-25 14:33N 59°52' E 028°28'6 5.4
2017-Mar-25 13:29N 59°46' E 028°25'0 0.1
2017-Mar-25 12:29N 59°46' E 028°25'0 0.0
2017-Mar-25 11:32N 59°46' E 028°25'0 0.0
2017-Mar-25 10:32N 59°46' E 028°25'0 0.0
2017-Mar-25 09:32N 59°46' E 028°25'0 0.0
2017-Mar-25 08:32N 59°46' E 028°25'0 0.0
2017-Mar-25 07:32N 59°46' E 028°25'0 0.0
2017-Mar-25 06:32N 59°46' E 028°25'0 0.0
2017-Mar-25 05:32N 59°46' E 028°25'0 0.0
2017-Mar-25 04:23N 59°46' E 028°25'0 0.0
2017-Mar-25 03:23N 59°46' E 028°25'0 0.0
2017-Mar-25 02:26N 59°46' E 028°25'0 0.0
2017-Mar-25 01:26N 59°46' E 028°25'0 0.0
2017-Mar-25 00:26N 59°46' E 028°25'0 0.1
2017-Mar-24 23:29N 59°46' E 028°25'0 0.1
2017-Mar-24 22:29N 59°46' E 028°25'0 0.0
2017-Mar-24 21:32N 59°46' E 028°25'0 0.0
2017-Mar-24 20:32N 59°46' E 028°25'0 0.0
2017-Mar-24 19:32N 59°46' E 028°25'0 0.0
2017-Mar-24 18:32N 59°46' E 028°25'0 0.2
2017-Mar-24 17:33N 59°46' E 028°25'4 4.0
2017-Mar-24 16:34N 59°42' E 028°25'0 0.4
2017-Mar-24 15:31N 59°42' E 028°26'0 0.0
2017-Mar-24 14:31N 59°42' E 028°26'0 0.0
2017-Mar-24 13:31N 59°42' E 028°26'0 0.0
2017-Mar-24 12:31N 59°42' E 028°26'0 0.0
2017-Mar-24 11:31N 59°42' E 028°26'0 0.0
2017-Mar-24 10:22N 59°42' E 028°26'0 0.0
2017-Mar-24 09:31N 59°42' E 028°26'0 0.0
2017-Mar-24 08:22N 59°42' E 028°26'0 0.0
2017-Mar-24 07:25N 59°42' E 028°26'0 0.0
2017-Mar-24 06:25N 59°42' E 028°26'0 0.0
2017-Mar-24 05:25N 59°42' E 028°26'0 0.0
2017-Mar-24 04:28N 59°42' E 028°26'0 0.0
2017-Mar-24 03:28N 59°42' E 028°26'0 0.0
2017-Mar-24 02:28N 59°42' E 028°26'0 0.0
2017-Mar-24 01:31N 59°42' E 028°26'0 0.0
2017-Mar-24 00:31N 59°42' E 028°26'0 0.0
2017-Mar-23 23:31N 59°42' E 028°26'0 0.0
2017-Mar-23 22:31N 59°42' E 028°26'0 0.0
2017-Mar-23 21:31N 59°42' E 028°26'0 0.0
2017-Mar-23 20:31N 59°42' E 028°26'0 0.0
2017-Mar-23 19:22N 59°42' E 028°26'0 0.0
2017-Mar-23 18:22N 59°42' E 028°26'0 0.0
2017-Mar-23 17:25N 59°42' E 028°26'0 0.0
2017-Mar-23 16:25N 59°42' E 028°26'0 0.0
2017-Mar-23 15:22N 59°42' E 028°26'0 0.0
2017-Mar-23 14:28N 59°42' E 028°26'0 0.0
2017-Mar-23 13:28N 59°42' E 028°26'0 0.0
2017-Mar-23 12:31N 59°42' E 028°26'0 0.0
2017-Mar-23 11:31N 59°42' E 028°26'0 0.0
2017-Mar-23 10:31N 59°42' E 028°26'0 0.0
2017-Mar-23 09:31N 59°42' E 028°26'1 0.7
2017-Mar-23 08:33N 59°41' E 028°25'5 5.2
2017-Mar-23 07:33N 59°47' E 028°24'0 0.0
2017-Mar-23 06:24N 59°47' E 028°24'0 0.0
2017-Mar-23 05:24N 59°47' E 028°24'0 0.0
2017-Mar-23 04:33N 59°47' E 028°24'0 0.0
2017-Mar-23 03:33N 59°47' E 028°24'0 0.0
2017-Mar-23 02:24N 59°47' E 028°24'0 0.0
2017-Mar-23 01:27N 59°47' E 028°24'0 0.0
2017-Mar-23 00:27N 59°47' E 028°24'0 0.0
2017-Mar-22 23:27N 59°47' E 028°24'0 0.0
2017-Mar-22 22:27N 59°47' E 028°24'0 0.0
2017-Mar-22 21:30N 59°47' E 028°24'0 0.0
2017-Mar-22 20:30N 59°47' E 028°24'0 0.0
2017-Mar-22 19:33N 59°47' E 028°24'0 0.0
2017-Mar-22 18:33N 59°47' E 028°24'0 0.0
2017-Mar-22 17:33N 59°47' E 028°24'0 0.0
2017-Mar-22 16:33N 59°47' E 028°24'0 0.0
2017-Mar-22 15:33N 59°47' E 028°24'0 0.4
2017-Mar-22 14:33N 59°47' E 028°25'9 9.2
2017-Mar-22 13:33N 59°55' E 028°34'2 1.9
2017-Mar-22 12:32N 59°56' E 028°38'0 0.0
2017-Mar-22 11:29N 59°56' E 028°38'0 0.0
2017-Mar-22 10:32N 59°56' E 028°38'0 0.0
2017-Mar-22 09:32N 59°56' E 028°38'0 0.0
2017-Mar-22 08:32N 59°56' E 028°38'0 0.0
2017-Mar-22 07:32N 59°56' E 028°38'0 0.0
2017-Mar-22 06:23N 59°56' E 028°38'0 0.0
2017-Mar-22 05:26N 59°56' E 028°38'0 0.0
2017-Mar-22 04:26N 59°56' E 028°38'0 0.0
2017-Mar-22 03:26N 59°56' E 028°38'0 0.0
2017-Mar-22 02:29N 59°56' E 028°37'0 0.0
2017-Mar-22 01:29N 59°56' E 028°37'0 0.0
2017-Mar-22 00:29N 59°56' E 028°37'0 0.0
2017-Mar-21 23:29N 59°56' E 028°38'0 0.0
2017-Mar-21 22:32N 59°56' E 028°38'0 0.0
2017-Mar-21 21:32N 59°56' E 028°38'0 0.0
2017-Mar-21 20:32N 59°56' E 028°38'0 0.0
2017-Mar-21 19:32N 59°56' E 028°38'0 0.0
2017-Mar-21 18:32N 59°56' E 028°38'0 0.0
2017-Mar-21 17:23N 59°56' E 028°38'0 0.1
2017-Mar-21 16:23N 59°56' E 028°37'0 0.0
2017-Mar-21 15:23N 59°56' E 028°37'0 0.0
2017-Mar-21 14:26N 59°56' E 028°37'0 0.0
2017-Mar-21 13:26N 59°56' E 028°37'0 0.0
2017-Mar-21 12:29N 59°56' E 028°37'0 0.0
2017-Mar-21 11:29N 59°56' E 028°37'0 0.0
2017-Mar-21 10:26N 59°56' E 028°37'0 0.0
2017-Mar-21 09:32N 59°56' E 028°37'0 0.0
2017-Mar-21 08:32N 59°56' E 028°37'0 0.4
2017-Mar-21 07:33N 59°56' E 028°37'5 4.7
2017-Mar-21 06:33N 60°01' E 028°36'8 8.3
2017-Mar-21 05:33N 60°05' E 028°22'1010.1
2017-Mar-21 04:33N 60°09' E 028°03'9 9.5
2017-Mar-21 03:33N 60°10' E 027°44'10 9.9
2017-Mar-21 02:33N 60°05' E 027°27'1110.0
2017-Mar-21 01:30N 59°60' E 027°09'9 9.1
2017-Mar-21 00:33N 59°59' E 026°52'10 9.7
2017-Mar-20 23:33N 59°59' E 026°33'1110.0
2017-Mar-20 22:27N 59°56' E 026°11'11010.0
2017-Mar-20 11:27N 59°26' E 022°41'  

Dump ship's entire track history